Aiwamaru — JD2602 — position and weather

sailwx.info

Track history (hours):
 
Tides and Currents Weather Stations Pressure Air Temp Water Temp Dewpoint Dewpoint Depression Visibility Wind Speed Wind Dir Waves Ship Positions

Aiwamaru

Last reported at 2015-Jan-31 18:23 UTC. Time now 2015-Feb-01 08:46 UTC.
Position N 34°41' E 134°48'.

Length 64 m; draft 4.8 m.

Type: Tanker. MMSI: 431000508.

Date/timePositionNaut miles runAvg speedWind from/ knotsBaromVisibWave heightAir tempDewpointWater temp
2015-Jan-31 18:23N 34°41' E 134°48'810.0
2015-Jan-31 17:33N 34°37' E 134°57'8 8.1
2015-Jan-31 16:33N 34°33' E 135°05'1211.5
2015-Jan-31 15:31N 34°21' E 135°01'10 9.7
2015-Jan-31 14:31N 34°12' E 134°60'  
2015-Jan-27 21:30N 34°37' E 134°52'1212.2
2015-Jan-27 20:33N 34°36' E 135°06'1312.9
2015-Jan-27 19:33N 34°37' E 135°22'6 5.5
2015-Jan-27 18:33N 34°40' E 135°27'0 0.0
2015-Jan-27 17:33N 34°40' E 135°27'0 0.0
2015-Jan-27 16:33N 34°40' E 135°27'0 0.0
2015-Jan-27 15:33N 34°40' E 135°27'0 0.0
2015-Jan-27 14:32N 34°40' E 135°27'0 0.0
2015-Jan-27 13:33N 34°40' E 135°27'0 0.0
2015-Jan-27 12:33N 34°40' E 135°27'0 0.0
2015-Jan-27 11:33N 34°40' E 135°27'0 0.0
2015-Jan-27 10:33N 34°40' E 135°27'0 0.0
2015-Jan-27 09:31N 34°40' E 135°27'0 0.0
2015-Jan-27 08:31N 34°40' E 135°27'0 0.0
2015-Jan-27 07:33N 34°40' E 135°27'0 0.0
2015-Jan-27 06:33N 34°40' E 135°27'0 0.1
2015-Jan-27 05:33N 34°40' E 135°27'0 0.4
2015-Jan-27 04:32N 34°40' E 135°27'0 0.0
2015-Jan-27 02:33N 34°40' E 135°27'0 0.0
2015-Jan-27 01:33N 34°40' E 135°27'0 0.0
2015-Jan-27 00:33N 34°40' E 135°27'0 0.0
2015-Jan-26 23:32N 34°40' E 135°27'1 1.1
2015-Jan-26 22:33N 34°39' E 135°26'7 7.2
2015-Jan-26 21:33N 34°35' E 135°19'1 1.3
2015-Jan-26 20:33N 34°34' E 135°18'7 7.4
2015-Jan-26 19:33N 34°29' E 135°12'8 7.5
2015-Jan-26 18:27N 34°23' E 135°05'8 7.5
2015-Jan-26 17:23N 34°16' E 134°59'8 9.3
2015-Jan-26 16:31N 34°08' E 135°00'252 5.0
2015-Jan-24 14:31N 34°55' E 140°01'1312.1
2015-Jan-24 13:25N 34°51' E 139°46'  
Track history (hours):
 
Tides and Currents Weather Stations Pressure Air Temp Water Temp Dewpoint Dewpoint Depression Visibility Wind Speed Wind Dir Waves Ship Positions

Aiwamaru

Last reported at 2015-Jan-31 18:23 UTC. Time now 2015-Feb-01 08:46 UTC.
Position N 34°41' E 134°48'.

Length 64 m; draft 4.8 m.

Type: Tanker. MMSI: 431000508.

Date/timePositionNaut miles runAvg speedWind from/ knotsBaromVisibWave heightAir tempDewpointWater temp
2015-Jan-31 18:23N 34°41' E 134°48'810.0
2015-Jan-31 17:33N 34°37' E 134°57'8 8.1
2015-Jan-31 16:33N 34°33' E 135°05'1211.5
2015-Jan-31 15:31N 34°21' E 135°01'10 9.7
2015-Jan-31 14:31N 34°12' E 134°60'  
2015-Jan-27 21:30N 34°37' E 134°52'1212.2
2015-Jan-27 20:33N 34°36' E 135°06'1312.9
2015-Jan-27 19:33N 34°37' E 135°22'6 5.5
2015-Jan-27 18:33N 34°40' E 135°27'0 0.0
2015-Jan-27 17:33N 34°40' E 135°27'0 0.0
2015-Jan-27 16:33N 34°40' E 135°27'0 0.0
2015-Jan-27 15:33N 34°40' E 135°27'0 0.0
2015-Jan-27 14:32N 34°40' E 135°27'0 0.0
2015-Jan-27 13:33N 34°40' E 135°27'0 0.0
2015-Jan-27 12:33N 34°40' E 135°27'0 0.0
2015-Jan-27 11:33N 34°40' E 135°27'0 0.0
2015-Jan-27 10:33N 34°40' E 135°27'0 0.0
2015-Jan-27 09:31N 34°40' E 135°27'0 0.0
2015-Jan-27 08:31N 34°40' E 135°27'0 0.0
2015-Jan-27 07:33N 34°40' E 135°27'0 0.0
2015-Jan-27 06:33N 34°40' E 135°27'0 0.1
2015-Jan-27 05:33N 34°40' E 135°27'0 0.4
2015-Jan-27 04:32N 34°40' E 135°27'0 0.0
2015-Jan-27 02:33N 34°40' E 135°27'0 0.0
2015-Jan-27 01:33N 34°40' E 135°27'0 0.0
2015-Jan-27 00:33N 34°40' E 135°27'0 0.0
2015-Jan-26 23:32N 34°40' E 135°27'1 1.1
2015-Jan-26 22:33N 34°39' E 135°26'7 7.2
2015-Jan-26 21:33N 34°35' E 135°19'1 1.3
2015-Jan-26 20:33N 34°34' E 135°18'7 7.4
2015-Jan-26 19:33N 34°29' E 135°12'8 7.5
2015-Jan-26 18:27N 34°23' E 135°05'8 7.5
2015-Jan-26 17:23N 34°16' E 134°59'8 9.3
2015-Jan-26 16:31N 34°08' E 135°00'252 5.0
2015-Jan-24 14:31N 34°55' E 140°01'1312.1
2015-Jan-24 13:25N 34°51' E 139°46'  

Dump ship's entire track history